Flight Track Log - Related Links

Times and Time Zones

All times are in EST time to prevent confusion due to time zone crossing. See the UCA844 flight status page for this flight to view local times or setup timezone preferences in your user account.

Time Position Orientation Groundspeed Altitude Reporting Facility
EST Latitude Longitude Course Direction KTS MPH feet Rate Location/Type
Tue 01:04:52 PM 40.6667 -74.2000 45° Northeast 143 165 1,700  Level New York TRACON
Tue 01:05:53 PM 40.7000 -74.2167 339° North 178 205 2,800 1,041 Climbing New York TRACON
Tue 01:06:53 PM 40.7500 -74.2000 14° North 199 229 3,800 1,000 Climbing New York TRACON
Tue 01:07:53 PM 40.8167 -74.2000 360° North 208 239 4,800 1,048 Climbing New York TRACON
Tue 01:08:59 PM 40.8833 -74.1833 11° North 211 243 6,000 600 Climbing New York TRACON
Tue 01:09:53 PM 40.9333 -74.1667 14° North 235 270 6,000  Level New York TRACON
Tue 01:10:00 PM 41.1422 -74.0905 45° Northeast  Level Estimated
Tue 01:10:59 PM 41.0167 -74.1667 360° North 254 292 6,000  Level New York TRACON
Tue 01:11:59 PM 41.0833 -74.1500 11° North 258 297 6,100 500 Climbing New York TRACON
Tue 01:12:59 PM 41.1500 -74.1333 11° North 246 283 7,000 850 Climbing New York TRACON
Tue 01:13:59 PM 41.1833 -74.0500 62° Northeast 248 285 7,800 857 Climbing New York TRACON
Tue 01:15:05 PM 41.2000 -73.9500 77° East 249 287 8,800 1,000 Climbing New York TRACON
Tue 01:15:59 PM 41.2167 -73.8833 72° East 243 280 9,800 895 Climbing New York TRACON
Tue 01:16:59 PM 41.2333 -73.8000 75° East 245 282 10,500 688 Climbing New York TRACON
Tue 01:19:11 PM 41.2753 -73.6078 74° East 252 290 12,000 691 Climbing Boston Center
Tue 01:20:10 PM 41.3158 -73.5358 53° Northeast 246 283 12,700 496 Climbing Boston Center
Tue 01:21:12 PM 41.3786 -73.4942 26° Northeast 251 289 13,000 144 Climbing Boston Center
Tue 01:22:15 PM 41.4478 -73.4989 357° North 251 289 13,000  Level Boston Center
Tue 01:23:16 PM 41.5186 -73.5014 358° North 254 292 13,000  Level Boston Center
Tue 01:24:17 PM 41.5972 -73.5050 358° North 261 300 13,000  Level Boston Center
Tue 01:25:18 PM 41.6714 -73.5078 358° North 267 307 13,000  Level Boston Center
Tue 01:26:18 PM 41.7453 -73.5117 358° North 267 307 13,000  Level Boston Center
Tue 01:27:22 PM 41.8258 -73.5161 358° North 269 310 13,000 -97 Level Boston Center
Tue 01:28:22 PM 41.9003 -73.5189 358° North 269 310 12,800 -595 Descending Boston Center
Tue 01:29:23 PM 41.9792 -73.5219 358° North 284 327 11,800 -988 Descending Boston Center
Tue 01:29:47 PM 42.0061 -73.5228 359° North 287 330 11,400 -837 Descending Boston Center
Tue 01:30:06 PM 42.0319 -73.5225 360° North 288 331 11,200 -649 Descending Boston Center
Tue 01:30:24 PM 42.0633 -73.5256 356° North 282 325 11,000 -222 Descending Boston Center
Tue 01:31:00 PM 42.1003 -73.5250 North 275 316 11,000  Level Boston Center
Tue 01:31:24 PM 42.1214 -73.5328 345° North 267 307 11,000  Level Boston Center
Tue 01:31:58 PM 42.1667 -73.5611 335° Northwest 253 291 11,000  Level Boston Center
Tue 01:32:25 PM 42.1856 -73.5736 334° Northwest 256 295 11,000 -190 Level Boston Center
Tue 01:33:01 PM 42.2339 -73.6036 335° Northwest 248 285 10,800 -563 Descending Boston Center
Tue 01:33:29 PM 42.2625 -73.6206 336° Northwest 253 291 10,400 -1,082 Descending Boston Center
Tue 01:34:02 PM 42.3017 -73.6436 336° Northwest 263 303 9,700 -1,400 Descending Boston Center
Tue 01:34:29 PM 42.3339 -73.6617 338° Northwest 269 310 9,000 -1,655 Descending Boston Center
Tue 01:35:00 PM 42.3675 -73.6828 335° Northwest 266 306 8,100 -1,574 Descending Boston Center
Tue 01:35:30 PM 42.3994 -73.6997 339° North 257 296 7,400 -1,594 Descending Boston Center
Tue 01:36:04 PM 42.4311 -73.7217 333° Northwest 248 285 6,400 -1,770 Descending Boston Center
Tue 01:36:31 PM 42.4606 -73.7367 339° North 241 277 5,600 -1,700 Descending Boston Center
Tue 01:37:04 PM 42.4914 -73.7564 335° Northwest 236 272 4,700 -1,714 Descending Boston Center
Tue 01:37:34 PM 42.5261 -73.7753 338° Northwest 240 276 3,800 -1,545 Descending Boston Center
Tue 01:38:10 PM 42.5617 -73.7944 338° Northwest 233 268 3,000 -1,180 Descending Boston Center
Tue 01:38:35 PM 42.5878 -73.7981 354° North 230 265 2,600 -492 Descending Boston Center
Tue 01:39:11 PM 42.6228 -73.8006 357° North 221 254 2,500 -400 Descending Boston Center
Tue 01:39:35 PM 42.6447 -73.8006 360° North 209 241 2,200 -885 Descending Boston Center
Tue 01:40:12 PM 42.6700 -73.8019 358° North 158 182 1,600 -885 Descending Boston Center
Tue 01:40:36 PM 42.6925 -73.8028 358° North 168 193 1,300 -716 Descending Boston Center
Tue 01:41:19 PM 42.7122 -73.8044 356° North 127 146 800 -787 Descending Boston Center
Tue 01:41:37 PM 42.7275 -73.8050 358° North 134 154 500 -1,000 Descending Boston Center
Tue 01:43:00 PM 42.7333 -73.8000 North  Level FlightAware Approximate
Tue 01:50:00 PM 42.7491 -73.8020 North  Level Estimated
Tue 01:51:00 PM 42.7491 -73.8020 North  Level Estimated
Tue 01:52:00 PM 42.7491 -73.8020 North  Level Estimated

Login

Don't have an account? Register now (free) for customized features, flight alerts, and more!